createdAt,value
2022-09-26T00:01:21.248Z,14.22
2022-09-26T00:03:50.720Z,14.15
2022-09-26T00:06:20.543Z,14.14
2022-09-26T00:08:50.030Z,14.11
2022-09-26T00:11:19.857Z,13.90
2022-09-26T00:13:48.067Z,13.90
2022-09-26T00:16:16.085Z,13.91
2022-09-26T00:18:43.638Z,13.82
2022-09-26T00:21:14.813Z,13.86
2022-09-26T00:23:43.666Z,13.94
2022-09-26T00:26:12.289Z,13.85
2022-09-26T00:28:40.166Z,13.89
2022-09-26T00:31:10.199Z,13.98
2022-09-26T00:33:38.250Z,13.90
2022-09-26T00:36:06.736Z,13.78
2022-09-26T00:38:34.644Z,13.84
2022-09-26T00:41:04.596Z,13.70
2022-09-26T00:43:35.265Z,13.69
2022-09-26T00:46:06.810Z,13.56
2022-09-26T00:48:36.736Z,13.42
2022-09-26T00:51:05.239Z,13.43
2022-09-26T00:53:37.034Z,13.44
2022-09-26T00:56:10.785Z,13.49
2022-09-26T00:58:43.405Z,13.45
2022-09-26T01:01:11.254Z,13.49
2022-09-26T01:03:42.544Z,13.50
2022-09-26T01:06:10.484Z,13.48
2022-09-26T01:08:42.550Z,13.45
2022-09-26T01:11:17.106Z,13.58
2022-09-26T01:13:46.577Z,13.61
2022-09-26T01:16:14.275Z,13.62
2022-09-26T01:18:42.383Z,13.70
2022-09-26T01:21:29.695Z,13.79
2022-09-26T01:24:26.625Z,13.76
2022-09-26T01:27:35.661Z,13.80
2022-09-26T01:30:10.542Z,13.77
2022-09-26T01:33:02.870Z,13.64
2022-09-26T01:35:56.393Z,13.73
2022-09-26T01:38:32.308Z,13.70
2022-09-26T01:41:12.641Z,13.70
2022-09-26T01:43:49.021Z,13.61
2022-09-26T01:46:26.567Z,13.65
2022-09-26T01:48:58.811Z,13.62
2022-09-26T01:51:31.703Z,13.69
2022-09-26T01:54:05.214Z,13.68
2022-09-26T01:56:38.107Z,13.68
2022-09-26T01:59:11.195Z,13.68
2022-09-26T02:01:44.340Z,13.63
2022-09-26T02:04:16.601Z,13.61
2022-09-26T02:06:53.851Z,13.51
2022-09-26T02:09:27.526Z,13.54
2022-09-26T02:12:00.710Z,13.71
2022-09-26T02:14:33.191Z,13.64
2022-09-26T02:17:06.631Z,13.68
2022-09-26T02:19:39.885Z,13.68
2022-09-26T02:22:07.511Z,13.68
2022-09-26T02:24:35.226Z,13.72
2022-09-26T02:27:03.063Z,13.74
2022-09-26T02:29:30.931Z,13.72
2022-09-26T02:32:03.222Z,13.69
2022-09-26T02:34:32.637Z,13.59
2022-09-26T02:37:01.062Z,13.51
2022-09-26T02:39:28.842Z,13.66
2022-09-26T02:42:08.998Z,13.50
2022-09-26T02:44:49.368Z,13.60
2022-09-26T02:47:37.426Z,13.59
2022-09-26T02:50:20.166Z,13.51
2022-09-26T02:53:00.238Z,13.49
2022-09-26T02:55:38.825Z,13.56
2022-09-26T02:58:16.225Z,13.63
2022-09-26T03:00:53.777Z,13.66
2022-09-26T03:03:27.060Z,13.66
2022-09-26T03:05:59.219Z,13.59
2022-09-26T03:08:28.972Z,13.53
2022-09-26T03:11:01.715Z,13.50
2022-09-26T03:13:34.746Z,13.53
2022-09-26T03:16:03.105Z,13.54
2022-09-26T03:18:37.021Z,13.54
2022-09-26T03:21:06.825Z,13.52
2022-09-26T03:23:34.403Z,13.43
2022-09-26T03:26:05.031Z,13.56
2022-09-26T03:28:37.492Z,13.53
2022-09-26T03:31:05.821Z,13.52
2022-09-26T03:33:34.158Z,13.41
2022-09-26T03:36:07.323Z,13.41
2022-09-26T03:38:34.859Z,13.46
2022-09-26T03:41:02.992Z,13.66
2022-09-26T03:43:31.365Z,13.62
2022-09-26T03:46:04.072Z,13.63
2022-09-26T03:48:32.049Z,13.76
2022-09-26T03:51:03.583Z,13.70
2022-09-26T03:53:33.979Z,13.67
2022-09-26T03:56:06.731Z,13.69
2022-09-26T03:58:34.776Z,13.75
2022-09-26T04:01:07.945Z,13.71
2022-09-26T04:03:36.367Z,13.63
2022-09-26T04:06:04.052Z,13.74
2022-09-26T04:08:32.877Z,13.57
2022-09-26T04:11:04.324Z,13.58
2022-09-26T04:13:50.863Z,13.47
2022-09-26T04:16:20.932Z,13.43
2022-09-26T04:18:48.683Z,13.54
2022-09-26T04:21:16.907Z,13.52
2022-09-26T04:23:46.108Z,13.51
2022-09-26T04:26:21.735Z,13.55
2022-09-26T04:28:50.935Z,13.46
2022-09-26T04:31:18.821Z,13.50
2022-09-26T04:33:46.413Z,13.49
2022-09-26T04:36:15.644Z,13.39
2022-09-26T04:38:43.297Z,13.44
2022-09-26T04:41:14.297Z,13.43
2022-09-26T04:43:42.425Z,13.40
2022-09-26T04:46:13.356Z,13.41
2022-09-26T04:48:44.003Z,13.31
2022-09-26T04:51:14.071Z,13.31
2022-09-26T04:53:42.614Z,13.25
2022-09-26T04:56:13.673Z,13.31
2022-09-26T04:58:43.197Z,13.21
2022-09-26T05:01:12.218Z,13.34
2022-09-26T05:03:41.767Z,13.38
2022-09-26T05:06:10.833Z,13.28
2022-09-26T05:08:39.276Z,13.39
2022-09-26T05:11:07.508Z,13.27
2022-09-26T05:13:38.745Z,13.18
2022-09-26T05:16:08.579Z,13.23
2022-09-26T05:18:37.586Z,13.11
2022-09-26T05:21:05.915Z,13.17
2022-09-26T05:23:50.726Z,13.16
2022-09-26T05:26:23.555Z,13.16
2022-09-26T05:28:54.552Z,13.24
2022-09-26T05:31:25.321Z,13.15
2022-09-26T05:33:53.750Z,13.17
2022-09-26T05:36:21.257Z,13.18
2022-09-26T05:38:48.773Z,13.20
2022-09-26T05:41:16.244Z,13.26
2022-09-26T05:43:43.798Z,13.35
2022-09-26T05:46:13.429Z,13.44
2022-09-26T05:48:41.634Z,13.35
2022-09-26T05:51:12.480Z,13.30
2022-09-26T05:53:40.936Z,13.27
2022-09-26T05:56:09.572Z,13.35
2022-09-26T05:58:40.173Z,13.29
2022-09-26T06:01:10.218Z,13.33
2022-09-26T06:03:42.387Z,13.33
2022-09-26T06:06:12.508Z,13.30
2022-09-26T06:08:40.943Z,13.53
2022-09-26T06:11:10.173Z,13.36
2022-09-26T06:13:38.204Z,13.40
2022-09-26T06:16:07.842Z,13.56
2022-09-26T06:18:36.029Z,13.47
2022-09-26T06:21:05.402Z,13.53
2022-09-26T06:23:33.574Z,13.50
2022-09-26T06:26:01.377Z,13.57
2022-09-26T06:28:29.076Z,13.63
2022-09-26T06:30:57.345Z,13.74
2022-09-26T06:33:27.645Z,13.70
2022-09-26T06:36:01.153Z,13.74
2022-09-26T06:38:30.956Z,13.73
2022-09-26T06:40:58.544Z,13.62
2022-09-26T06:43:26.373Z,13.64
2022-09-26T06:45:53.946Z,13.75
2022-09-26T06:48:26.261Z,13.75
2022-09-26T06:50:54.938Z,13.82
2022-09-26T06:53:23.337Z,13.76
2022-09-26T06:55:52.315Z,13.81
2022-09-26T06:58:19.970Z,13.91
2022-09-26T07:00:48.110Z,13.88
2022-09-26T07:03:15.932Z,13.82
2022-09-26T07:05:43.711Z,13.89
2022-09-26T07:08:11.216Z,13.96
2022-09-26T07:10:38.835Z,13.89
2022-09-26T07:13:10.090Z,13.92
2022-09-26T07:15:37.859Z,13.91
2022-09-26T07:18:07.050Z,13.86
2022-09-26T07:20:39.889Z,13.86
2022-09-26T07:23:09.233Z,14.04
2022-09-26T07:25:39.352Z,13.69
2022-09-26T07:28:10.088Z,13.33
2022-09-26T07:30:38.003Z,13.36
2022-09-26T07:33:07.230Z,13.72
2022-09-26T07:35:37.339Z,13.77
2022-09-26T07:38:05.034Z,13.83
2022-09-26T07:40:33.170Z,13.92
2022-09-26T07:43:19.080Z,14.02
2022-09-26T07:46:17.609Z,14.03
2022-09-26T07:49:02.861Z,13.95
2022-09-26T07:51:32.327Z,14.05
2022-09-26T07:53:59.852Z,14.11
2022-09-26T07:56:27.448Z,14.10
2022-09-26T07:58:55.336Z,14.17
2022-09-26T08:01:25.935Z,14.10
2022-09-26T08:03:55.503Z,14.17
2022-09-26T08:06:23.848Z,14.13
2022-09-26T08:08:53.768Z,14.10
2022-09-26T08:11:22.318Z,14.01
2022-09-26T08:13:50.178Z,13.90
2022-09-26T08:16:20.568Z,13.81
2022-09-26T08:18:50.042Z,13.91
2022-09-26T08:21:17.870Z,13.92
2022-09-26T08:23:46.674Z,13.90
2022-09-26T08:26:14.717Z,13.84
2022-09-26T08:28:42.754Z,13.85
2022-09-26T08:31:11.450Z,13.83
2022-09-26T08:33:40.052Z,13.82
2022-09-26T08:36:11.247Z,13.85
2022-09-26T08:38:39.272Z,13.90
2022-09-26T08:41:22.796Z,13.94
2022-09-26T08:44:03.525Z,13.73
2022-09-26T08:46:45.520Z,13.86
2022-09-26T08:49:42.866Z,13.96
2022-09-26T08:52:27.985Z,13.86
2022-09-26T08:54:57.461Z,13.91
2022-09-26T08:57:40.537Z,13.92
2022-09-26T09:00:19.343Z,13.79
2022-09-26T09:02:56.658Z,13.79
2022-09-26T09:05:27.631Z,13.82
2022-09-26T09:07:59.386Z,13.85
2022-09-26T09:10:39.853Z,13.85
2022-09-26T09:13:15.444Z,13.82
2022-09-26T09:15:57.542Z,13.92
2022-09-26T09:18:30.561Z,13.93
2022-09-26T09:21:02.762Z,13.88
2022-09-26T09:23:51.485Z,13.81
2022-09-26T09:29:29.717Z,13.88
2022-09-26T09:32:00.615Z,13.87
2022-09-26T09:34:32.262Z,13.74
2022-09-26T09:37:05.237Z,13.75
2022-09-26T09:39:37.783Z,13.78
2022-09-26T09:42:11.874Z,13.69
2022-09-26T09:44:47.002Z,13.61
2022-09-26T09:47:17.049Z,13.51
2022-09-26T09:49:46.069Z,13.56
2022-09-26T09:52:38.170Z,13.69
2022-09-26T09:55:17.701Z,13.70
2022-09-26T09:58:02.767Z,13.66
2022-09-26T10:00:32.212Z,13.64
2022-09-26T10:03:05.542Z,13.76
2022-09-26T10:05:39.270Z,13.54
2022-09-26T10:08:13.067Z,13.65
2022-09-26T10:10:48.051Z,13.52
2022-09-26T10:13:17.754Z,13.61
2022-09-26T10:15:56.034Z,13.77
2022-09-26T10:18:26.078Z,13.50
2022-09-26T10:20:56.170Z,13.76
2022-09-26T10:23:31.161Z,13.58
2022-09-26T10:26:03.463Z,13.55
2022-09-26T10:28:35.806Z,13.56
2022-09-26T10:31:08.203Z,13.69
2022-09-26T10:33:38.449Z,13.80
2022-09-26T10:36:19.597Z,13.53
2022-09-26T10:39:10.521Z,13.70
2022-09-26T10:41:44.884Z,13.76
2022-09-26T10:44:24.241Z,13.85
2022-09-26T10:46:56.334Z,13.78
2022-09-26T10:49:32.174Z,13.66
2022-09-26T10:52:08.361Z,13.64
2022-09-26T10:54:41.861Z,13.77
2022-09-26T10:57:20.608Z,13.87
2022-09-26T10:59:49.514Z,13.70
2022-09-26T11:02:22.146Z,13.56
2022-09-26T11:05:11.110Z,13.68
2022-09-26T11:07:42.392Z,13.50
2022-09-26T11:10:13.806Z,13.86
2022-09-26T11:12:56.958Z,14.12
2022-09-26T11:15:25.135Z,13.88
2022-09-26T11:17:55.302Z,14.16
2022-09-26T11:20:40.630Z,14.22
2022-09-26T11:23:17.364Z,14.27
2022-09-26T11:25:57.921Z,14.31
2022-09-26T11:28:34.252Z,14.23
2022-09-26T11:31:09.801Z,14.29
2022-09-26T11:33:45.690Z,14.59
2022-09-26T11:36:30.413Z,14.40
2022-09-26T11:38:59.215Z,14.41
2022-09-26T11:41:44.607Z,14.52
2022-09-26T11:44:30.456Z,14.49
2022-09-26T11:47:08.957Z,14.52
2022-09-26T11:49:50.169Z,14.38
2022-09-26T11:52:45.588Z,14.70
2022-09-26T11:55:24.848Z,14.61
2022-09-26T11:58:03.719Z,14.68
2022-09-26T12:00:43.023Z,14.62
2022-09-26T12:03:36.882Z,14.82
2022-09-26T12:06:13.509Z,14.85
2022-09-26T12:09:18.871Z,14.99
2022-09-26T12:11:59.959Z,14.83
2022-09-26T12:14:40.629Z,14.86
2022-09-26T12:17:20.428Z,15.01
2022-09-26T12:19:56.741Z,15.24
2022-09-26T12:22:33.255Z,14.87
2022-09-26T12:25:22.733Z,14.91
2022-09-26T12:28:02.842Z,15.17
2022-09-26T12:30:35.543Z,14.95
2022-09-26T12:33:26.177Z,14.76
2022-09-26T12:36:02.708Z,14.92
2022-09-26T12:38:56.707Z,14.80
2022-09-26T12:41:51.727Z,14.76
2022-09-26T12:44:32.002Z,14.58
2022-09-26T12:47:13.061Z,14.69
2022-09-26T12:49:58.115Z,14.36
2022-09-26T12:52:43.267Z,14.30
2022-09-26T12:55:23.364Z,14.44
2022-09-26T12:58:16.787Z,14.46
2022-09-26T13:00:54.172Z,14.60
2022-09-26T13:03:43.803Z,14.62
2022-09-26T13:06:57.305Z,14.52
2022-09-26T13:09:51.804Z,14.46
2022-09-26T13:12:40.486Z,14.17
2022-09-26T13:15:23.840Z,14.03
2022-09-26T13:17:57.773Z,14.19
2022-09-26T13:20:31.692Z,14.30
2022-09-26T13:23:05.928Z,14.33
2022-09-26T13:25:47.167Z,14.31
2022-09-26T13:28:20.819Z,14.46
2022-09-26T13:30:53.390Z,14.50
2022-09-26T13:33:25.693Z,14.45
2022-09-26T13:35:56.320Z,14.44
2022-09-26T13:38:46.048Z,14.46
2022-09-26T13:41:31.237Z,14.37
2022-09-26T13:44:10.733Z,14.27
2022-09-26T13:46:50.975Z,14.39
2022-09-26T13:49:31.892Z,14.68
2022-09-26T13:52:14.272Z,14.66
2022-09-26T13:54:56.109Z,14.42
2022-09-26T13:57:51.541Z,14.37
2022-09-26T14:00:57.545Z,14.43
2022-09-26T14:03:46.025Z,14.39
2022-09-26T14:06:28.463Z,14.38
2022-09-26T14:09:28.475Z,14.47
2022-09-26T14:12:19.975Z,14.43
2022-09-26T14:15:07.721Z,14.25
2022-09-26T14:18:06.847Z,14.29
2022-09-26T14:20:48.261Z,14.41
2022-09-26T14:23:38.686Z,14.13
2022-09-26T14:26:08.638Z,14.39
2022-09-26T14:28:38.461Z,14.31
2022-09-26T14:31:14.162Z,14.02
2022-09-26T14:33:44.045Z,14.19
2022-09-26T14:36:34.009Z,14.27
2022-09-26T14:39:02.672Z,14.18
2022-09-26T14:41:32.345Z,14.12
2022-09-26T14:44:03.894Z,14.11
2022-09-26T14:46:34.371Z,13.98
2022-09-26T14:49:05.267Z,13.93
2022-09-26T14:51:37.015Z,14.02
2022-09-26T14:54:08.863Z,14.08
2022-09-26T14:56:44.141Z,14.02
2022-09-26T14:59:39.973Z,14.03
2022-09-26T15:02:31.240Z,13.99
2022-09-26T15:05:07.402Z,13.83
2022-09-26T15:07:41.816Z,13.96
2022-09-26T15:10:21.730Z,13.92
2022-09-26T15:12:54.714Z,13.90
2022-09-26T15:15:34.987Z,13.95
2022-09-26T15:18:09.946Z,13.83
2022-09-26T15:20:43.713Z,14.04
2022-09-26T15:23:22.413Z,14.00
2022-09-26T15:25:51.078Z,13.86
2022-09-26T15:28:18.622Z,13.88
2022-09-26T15:30:46.267Z,13.86
2022-09-26T15:33:18.479Z,13.82
2022-09-26T15:35:55.685Z,13.72
2022-09-26T15:38:26.014Z,13.70
2022-09-26T15:41:01.498Z,13.70
2022-09-26T15:43:34.589Z,13.77
2022-09-26T15:46:07.237Z,13.63
2022-09-26T15:48:43.985Z,13.52
2022-09-26T15:51:19.159Z,13.61
2022-09-26T15:53:48.399Z,13.76
2022-09-26T15:56:19.467Z,13.63
2022-09-26T15:58:51.405Z,13.67
2022-09-26T16:01:21.013Z,13.52
2022-09-26T16:03:55.634Z,13.52
2022-09-26T16:06:33.613Z,13.63
2022-09-26T16:09:07.496Z,13.58
2022-09-26T16:11:43.507Z,13.43
2022-09-26T16:14:25.658Z,13.47
2022-09-26T16:16:55.642Z,13.45
2022-09-26T16:19:34.882Z,13.41
2022-09-26T16:22:40.354Z,13.49
2022-09-26T16:25:34.184Z,13.44
2022-09-26T16:28:20.958Z,13.60
2022-09-26T16:31:10.214Z,13.49
2022-09-26T16:33:39.911Z,13.36
2022-09-26T16:36:17.707Z,13.34
2022-09-26T16:38:51.791Z,13.35
2022-09-26T16:41:56.209Z,13.48
2022-09-26T16:44:28.996Z,13.20
2022-09-26T16:47:01.496Z,13.14
2022-09-26T16:49:34.336Z,13.23
2022-09-26T16:52:21.276Z,12.96
2022-09-26T16:54:49.562Z,12.90
2022-09-26T16:57:22.326Z,13.09
2022-09-26T16:59:50.577Z,13.22
2022-09-26T17:02:17.328Z,13.13
2022-09-26T17:04:45.360Z,13.15
2022-09-26T17:07:16.196Z,13.15
2022-09-26T17:09:44.058Z,13.19
2022-09-26T17:12:18.931Z,13.06
2022-09-26T17:14:51.781Z,13.05
2022-09-26T17:17:23.823Z,13.11
2022-09-26T17:19:59.063Z,13.12
2022-09-26T17:22:29.496Z,13.06
2022-09-26T17:24:57.036Z,13.06
2022-09-26T17:27:27.915Z,12.87
2022-09-26T17:30:01.283Z,12.80
2022-09-26T17:32:31.607Z,12.98
2022-09-26T17:35:01.081Z,13.16
2022-09-26T17:37:32.569Z,13.14
2022-09-26T17:40:00.124Z,13.28
2022-09-26T17:42:29.168Z,13.32
2022-09-26T17:44:56.715Z,13.04
2022-09-26T17:47:24.208Z,13.15
2022-09-26T17:49:56.221Z,13.08
2022-09-26T17:52:26.013Z,13.12
2022-09-26T17:54:57.336Z,13.23
2022-09-26T17:57:27.815Z,13.04
2022-09-26T17:59:55.576Z,13.05
2022-09-26T18:02:26.000Z,12.97
2022-09-26T18:04:55.634Z,13.13
2022-09-26T18:07:24.245Z,13.26
2022-09-26T18:09:52.291Z,13.26
2022-09-26T18:12:23.848Z,13.10
2022-09-26T18:14:52.137Z,12.96
2022-09-26T18:17:19.673Z,12.97
2022-09-26T18:19:47.825Z,12.96
2022-09-26T18:22:18.946Z,12.70
2022-09-26T18:24:48.292Z,12.71
2022-09-26T18:27:17.692Z,12.89
2022-09-26T18:29:47.877Z,12.73
2022-09-26T18:32:23.643Z,12.79
2022-09-26T18:34:51.595Z,12.87
2022-09-26T18:37:19.165Z,12.99
2022-09-26T18:39:50.819Z,12.92
2022-09-26T18:42:24.307Z,13.05
2022-09-26T18:45:03.470Z,12.88
2022-09-26T18:47:36.402Z,12.99
2022-09-26T18:50:04.825Z,12.83
2022-09-26T18:52:32.345Z,12.75
2022-09-26T18:55:13.797Z,12.77
2022-09-26T18:57:55.244Z,12.80
2022-09-26T19:00:25.011Z,12.78
2022-09-26T19:02:52.762Z,12.86
2022-09-26T19:05:21.022Z,12.88
2022-09-26T19:07:48.591Z,12.83
2022-09-26T19:10:17.162Z,12.83
2022-09-26T19:12:44.831Z,12.78
2022-09-26T19:15:14.898Z,12.85
2022-09-26T19:17:44.224Z,12.89
2022-09-26T19:20:11.795Z,13.02
2022-09-26T19:22:39.501Z,13.08
2022-09-26T19:25:09.468Z,13.17
2022-09-26T19:27:43.226Z,13.18
2022-09-26T19:30:16.404Z,13.13
2022-09-26T19:32:49.122Z,13.13
2022-09-26T19:35:23.965Z,13.15
2022-09-26T19:37:51.698Z,13.15
2022-09-26T19:40:21.744Z,13.13
2022-09-26T19:42:49.466Z,13.21
2022-09-26T19:45:17.942Z,13.21
2022-09-26T19:47:48.739Z,13.34
2022-09-26T19:50:18.655Z,13.31
2022-09-26T19:52:46.454Z,13.29
2022-09-26T19:55:15.678Z,13.26
2022-09-26T19:57:43.398Z,13.20
2022-09-26T20:00:12.474Z,13.29
2022-09-26T20:02:40.229Z,13.29
2022-09-26T20:05:16.722Z,13.33
2022-09-26T20:07:44.474Z,13.40
2022-09-26T20:10:15.761Z,13.25
2022-09-26T20:12:43.345Z,13.25
2022-09-26T20:15:12.600Z,13.34
2022-09-26T20:17:43.057Z,13.32
2022-09-26T20:20:17.205Z,13.33
2022-09-26T20:22:45.525Z,13.24
2022-09-26T20:25:16.569Z,13.31
2022-09-26T20:27:44.115Z,13.26
2022-09-26T20:30:32.370Z,13.37
2022-09-26T20:33:00.135Z,13.37
2022-09-26T20:35:35.250Z,13.30
2022-09-26T20:38:07.109Z,13.23
2022-09-26T20:40:35.807Z,13.28
2022-09-26T20:43:08.213Z,13.30
2022-09-26T20:45:41.196Z,13.23
2022-09-26T20:48:14.872Z,13.28
2022-09-26T20:50:45.008Z,13.28
2022-09-26T20:53:17.689Z,13.34
2022-09-26T20:55:45.413Z,13.31
2022-09-26T20:58:13.508Z,13.25
2022-09-26T21:00:41.785Z,13.25
2022-09-26T21:03:12.066Z,13.29
2022-09-26T21:05:40.076Z,13.33
2022-09-26T21:08:14.837Z,13.25
2022-09-26T21:10:42.405Z,13.32
2022-09-26T21:13:10.311Z,13.19
2022-09-26T21:15:41.407Z,13.37
2022-09-26T21:18:23.082Z,13.36
2022-09-26T21:20:51.877Z,13.45
2022-09-26T21:23:22.376Z,13.31
2022-09-26T21:25:50.325Z,13.26
2022-09-26T21:28:26.295Z,13.31
2022-09-26T21:30:55.670Z,13.29
2022-09-26T21:33:24.118Z,13.42
2022-09-26T21:35:52.214Z,13.37
2022-09-26T21:38:21.959Z,13.26
2022-09-26T21:40:54.703Z,13.30
2022-09-26T21:43:26.813Z,13.27
2022-09-26T21:45:54.385Z,13.36
2022-09-26T21:48:22.451Z,13.27
2022-09-26T21:50:57.434Z,13.37
2022-09-26T21:53:32.682Z,13.33
2022-09-26T21:56:07.492Z,13.40
2022-09-26T21:58:39.501Z,13.26
2022-09-26T22:01:07.589Z,13.27
2022-09-26T22:03:35.836Z,13.15
2022-09-26T22:06:07.176Z,13.15
2022-09-26T22:08:36.663Z,13.27
2022-09-26T22:11:04.442Z,13.18
2022-09-26T22:13:32.948Z,13.29
2022-09-26T22:16:05.901Z,13.22
2022-09-26T22:18:34.162Z,13.31
2022-09-26T22:21:04.637Z,13.25
2022-09-26T22:23:33.404Z,13.26
2022-09-26T22:26:05.368Z,13.35
2022-09-26T22:28:33.518Z,13.30
2022-09-26T22:31:01.612Z,13.36
2022-09-26T22:33:29.560Z,13.32
2022-09-26T22:35:57.262Z,13.39
2022-09-26T22:38:25.232Z,13.35
2022-09-26T22:40:57.254Z,13.21
2022-09-26T22:43:26.298Z,13.30
2022-09-26T22:46:00.965Z,13.26
2022-09-26T22:48:31.162Z,13.25
2022-09-26T22:50:58.757Z,13.17
2022-09-26T22:53:26.592Z,13.16
2022-09-26T22:55:55.723Z,13.22
2022-09-26T22:58:23.655Z,13.11
2022-09-26T23:00:53.143Z,13.24
2022-09-26T23:03:20.695Z,13.26
2022-09-26T23:05:49.794Z,13.32
2022-09-26T23:08:17.318Z,13.32
2022-09-26T23:10:50.463Z,13.29
2022-09-26T23:13:18.303Z,13.36
2022-09-26T23:15:46.590Z,13.17
2022-09-26T23:18:15.843Z,13.26
2022-09-26T23:20:44.691Z,13.45
2022-09-26T23:23:13.572Z,13.46
2022-09-26T23:25:46.604Z,13.33
2022-09-26T23:28:14.329Z,13.38
2022-09-26T23:30:41.936Z,13.26
2022-09-26T23:33:09.717Z,13.10
2022-09-26T23:35:38.768Z,13.34
2022-09-26T23:38:06.301Z,13.29
2022-09-26T23:40:34.287Z,13.38
2022-09-26T23:43:02.440Z,13.35
2022-09-26T23:45:30.903Z,13.31
2022-09-26T23:47:58.389Z,13.28
2022-09-26T23:50:27.212Z,13.26
2022-09-26T23:52:56.230Z,13.32
2022-09-26T23:55:23.712Z,13.14
2022-09-26T23:57:51.230Z,13.30
